Time;durP1;ratioP1;P1;durP2;ratioP2;P2;SDS_P1;SDS_P2;PMS_P1;PMS_P2;Temp;Humidity;BMP_temperature;BMP_pressure;BME280_temperature;BME280_humidity;BME280_pressure;Samples;Min_cycle;Max_cycle;Signal;HPM_P1;HPM_P2
2022/10/27 00:00:14;;;;;;;;;;;31.60;78.60;;;;;;5036409;28;20287;-73
2022/10/27 00:02:41;;;;;;;;;;;31.80;78.10;;;;;;5053502;28;19920;-71
2022/10/27 00:05:08;;;;;;;;;;;31.80;76.90;;;;;;5034899;28;19913;-70
2022/10/27 00:07:38;;;;;;;;;;;31.40;76.10;;;;;;5033776;28;20377;-75
2022/10/27 00:10:08;;;;;;;;;;;31.50;77.00;;;;;;5034289;28;19913;-75
2022/10/27 00:12:34;;;;;;;;;;;31.50;76.20;;;;;;5033726;28;19963;-70
2022/10/27 00:15:01;;;;;;;;;;;31.40;78.10;;;;;;5048817;28;19938;-71
2022/10/27 00:17:28;;;;;;;;;;;31.20;77.00;;;;;;5052628;28;19913;-70
2022/10/27 00:19:55;;;;;;;;;;;31.00;76.10;;;;;;5041533;28;20011;-70
2022/10/27 00:22:21;;;;;;;;;;;31.00;78.80;;;;;;5053330;28;19916;-71
2022/10/27 00:24:48;;;;;;;;;;;31.30;77.80;;;;;;5039989;28;19920;-70
2022/10/27 00:27:15;;;;;;;;;;;31.60;75.90;;;;;;5039215;28;19921;-70
2022/10/27 00:29:41;;;;;;;;;;;31.50;75.90;;;;;;5052133;28;19921;-72
2022/10/27 00:32:08;;;;;;;;;;;31.80;76.60;;;;;;5052202;28;19920;-71
2022/10/27 00:34:34;;;;;;;;;;;31.50;75.40;;;;;;5041878;28;20002;-71
2022/10/27 00:37:01;;;;;;;;;;;31.50;75.40;;;;;;5036807;28;19909;-70
2022/10/27 00:39:28;;;;;;;;;;;31.30;74.50;;;;;;5042701;28;20379;-71
2022/10/27 00:41:55;;;;;;;;;;;31.00;75.90;;;;;;5032952;28;20348;-72
2022/10/27 00:44:35;;;;;;;;;;;30.50;76.20;;;;;;5034048;28;20397;-71
2022/10/27 00:47:10;;;;;;;;;;;29.70;74.60;;;;;;5032149;28;20323;-70
2022/10/27 00:49:56;;;;;;;;;;;29.00;76.60;;;;;;5037782;28;20066;-70
2022/10/27 00:52:31;;;;;;;;;;;29.10;76.70;;;;;;5039076;28;19919;-71
2022/10/27 00:54:59;;;;;;;;;;;29.80;76.80;;;;;;5049758;28;19920;-76
2022/10/27 00:57:26;;;;;;;;;;;29.80;75.90;;;;;;5051490;28;20387;-75
2022/10/27 00:59:53;;;;;;;;;;;29.10;76.90;;;;;;5038556;28;19963;-72
2022/10/27 01:02:20;;;;;;;;;;;28.80;78.70;;;;;;5049436;28;19990;-75
2022/10/27 01:04:52;;;;;;;;;;;28.70;78.20;;;;;;5039383;28;19917;-73
2022/10/27 01:07:20;;;;;;;;;;;28.70;78.50;;;;;;5032798;28;19913;-73
2022/10/27 01:09:47;;;;;;;;;;;28.60;77.90;;;;;;5033329;28;19925;-72
2022/10/27 01:12:14;;;;;;;;;;;28.10;78.80;;;;;;5046156;28;19909;-73
2022/10/27 01:14:40;;;;;;;;;;;27.60;83.20;;;;;;5040300;28;19921;-71
2022/10/27 01:17:13;;;;;;;;;;;26.70;84.30;;;;;;5032338;28;19913;-71
2022/10/27 01:19:42;;;;;;;;;;;25.90;90.40;;;;;;5045931;28;19924;-70
2022/10/27 01:22:35;;;;;;;;;;;24.80;93.30;;;;;;5050229;28;19967;-71
2022/10/27 01:25:02;;;;;;;;;;;24.10;95.00;;;;;;5030253;28;19998;-68
2022/10/27 01:27:46;;;;;;;;;;;23.20;95.90;;;;;;5032562;28;19979;-68
2022/10/27 01:30:22;;;;;;;;;;;22.70;97.30;;;;;;5033520;28;19921;-71
2022/10/27 01:32:58;;;;;;;;;;;22.40;98.50;;;;;;5032282;28;19913;-69
2022/10/27 01:35:27;;;;;;;;;;;22.40;99.90;;;;;;5040684;28;19914;-69
2022/10/27 01:38:05;;;;;;;;;;;22.50;99.90;;;;;;5047261;28;19913;-70
2022/10/27 01:40:39;;;;;;;;;;;22.80;99.90;;;;;;5033463;28;19913;-69
2022/10/27 01:43:08;;;;;;;;;;;23.30;99.90;;;;;;5032028;28;19920;-71
2022/10/27 01:45:37;;;;;;;;;;;23.50;99.90;;;;;;5041316;28;19955;-70
2022/10/27 01:48:04;;;;;;;;;;;23.80;99.90;;;;;;5051819;28;19921;-70
2022/10/27 01:50:36;;;;;;;;;;;24.20;99.90;;;;;;5033509;28;19913;-70
2022/10/27 01:53:02;;;;;;;;;;;24.30;98.40;;;;;;5040340;28;20001;-70
2022/10/27 01:55:41;;;;;;;;;;;24.50;98.40;;;;;;5033056;28;20344;-70
2022/10/27 01:58:08;;;;;;;;;;;24.50;97.90;;;;;;5043482;28;20326;-70
2022/10/27 02:00:42;;;;;;;;;;;24.50;97.90;;;;;;5054914;28;20212;-69
2022/10/27 02:03:14;;;;;;;;;;;24.30;96.30;;;;;;5046565;28;19988;-70
2022/10/27 02:05:50;;;;;;;;;;;24.10;96.40;;;;;;5055105;28;20359;-70
2022/10/27 02:08:32;;;;;;;;;;;23.90;96.30;;;;;;5054453;28;19932;-72
2022/10/27 02:11:06;;;;;;;;;;;23.60;96.10;;;;;;5036219;28;20059;-70
2022/10/27 02:13:35;;;;;;;;;;;23.40;95.70;;;;;;5036770;28;20386;-70
2022/10/27 02:16:04;;;;;;;;;;;23.40;96.40;;;;;;5042583;28;19920;-70
2022/10/27 02:18:36;;;;;;;;;;;23.40;95.80;;;;;;5054706;28;19919;-71
2022/10/27 02:21:04;;;;;;;;;;;23.40;96.20;;;;;;5055817;28;20256;-71
2022/10/27 02:23:30;;;;;;;;;;;23.50;96.60;;;;;;5054686;28;19913;-70
2022/10/27 02:25:57;;;;;;;;;;;23.60;96.10;;;;;;5055399;28;19928;-70
2022/10/27 02:28:47;;;;;;;;;;;23.70;95.70;;;;;;5054611;28;19920;-70
2022/10/27 02:31:15;;;;;;;;;;;23.70;96.30;;;;;;5044016;28;19913;-70
2022/10/27 02:33:42;;;;;;;;;;;23.90;96.40;;;;;;5050436;28;19913;-70
2022/10/27 02:36:09;;;;;;;;;;;24.00;95.80;;;;;;5043187;28;20336;-72
2022/10/27 02:38:36;;;;;;;;;;;24.20;95.80;;;;;;5052255;28;20296;-71
2022/10/27 02:41:02;;;;;;;;;;;24.30;96.10;;;;;;5035748;28;20389;-70
2022/10/27 02:43:29;;;;;;;;;;;24.60;95.40;;;;;;5036370;28;20387;-69
2022/10/27 02:45:56;;;;;;;;;;;24.80;94.90;;;;;;5035366;28;19919;-71
2022/10/27 02:48:22;;;;;;;;;;;25.00;94.40;;;;;;5036206;28;19996;-71
2022/10/27 02:50:49;;;;;;;;;;;25.20;94.00;;;;;;5035420;28;19909;-71
2022/10/27 02:53:16;;;;;;;;;;;25.30;93.90;;;;;;5040225;28;19916;-70
2022/10/27 02:55:42;;;;;;;;;;;25.30;93.60;;;;;;5054222;28;19913;-75
2022/10/27 02:58:09;;;;;;;;;;;25.20;92.30;;;;;;5046591;28;20406;-73
2022/10/27 03:00:36;;;;;;;;;;;25.20;92.30;;;;;;5036121;28;20093;-76
2022/10/27 03:03:02;;;;;;;;;;;25.10;92.90;;;;;;5047035;28;20338;-75
2022/10/27 03:05:29;;;;;;;;;;;25.00;92.80;;;;;;5036035;28;19913;-75
2022/10/27 03:07:56;;;;;;;;;;;25.00;93.00;;;;;;5034881;28;19928;-76
2022/10/27 03:10:22;;;;;;;;;;;25.00;92.90;;;;;;5041369;28;19913;-73
2022/10/27 03:12:49;;;;;;;;;;;25.00;92.40;;;;;;5053804;28;20355;-74
2022/10/27 03:15:16;;;;;;;;;;;25.00;92.20;;;;;;5037662;28;19967;-75
2022/10/27 03:17:43;;;;;;;;;;;25.20;91.40;;;;;;5034743;28;20271;-75
2022/10/27 03:20:11;;;;;;;;;;;25.30;90.70;;;;;;5035542;28;20244;-75
2022/10/27 03:22:38;;;;;;;;;;;25.50;90.20;;;;;;5034806;28;19957;-74
2022/10/27 03:25:04;;;;;;;;;;;25.70;89.20;;;;;;5048919;28;19919;-76
2022/10/27 03:27:31;;;;;;;;;;;25.80;89.40;;;;;;5051232;28;19916;-77
2022/10/27 03:29:58;;;;;;;;;;;25.90;89.50;;;;;;5038406;28;20047;-76
2022/10/27 03:32:25;;;;;;;;;;;26.10;86.80;;;;;;5042610;28;20279;-70
2022/10/27 03:34:51;;;;;;;;;;;26.10;86.90;;;;;;5040610;28;19913;-74
2022/10/27 03:37:18;;;;;;;;;;;26.10;86.30;;;;;;5050455;28;19963;-75
2022/10/27 03:39:44;;;;;;;;;;;26.10;87.30;;;;;;5053132;28;19966;-75
2022/10/27 03:42:11;;;;;;;;;;;26.00;87.70;;;;;;5054309;28;19915;-77
2022/10/27 03:44:38;;;;;;;;;;;26.00;88.50;;;;;;5050936;28;20438;-75
2022/10/27 03:47:04;;;;;;;;;;;26.00;87.20;;;;;;5054056;28;19909;-72
2022/10/27 03:49:31;;;;;;;;;;;26.00;87.40;;;;;;5043200;28;19925;-75
2022/10/27 03:51:58;;;;;;;;;;;26.10;87.00;;;;;;5034045;28;19984;-73
2022/10/27 03:54:24;;;;;;;;;;;26.30;86.60;;;;;;5035027;28;19913;-76
2022/10/27 03:56:51;;;;;;;;;;;26.40;85.50;;;;;;5034417;28;19918;-76
2022/10/27 03:59:18;;;;;;;;;;;26.60;84.90;;;;;;5035049;28;19944;-76
2022/10/27 04:01:44;;;;;;;;;;;26.60;85.30;;;;;;5043064;28;19917;-71
2022/10/27 04:04:11;;;;;;;;;;;26.60;87.80;;;;;;5038781;28;20245;-76
2022/10/27 04:06:38;;;;;;;;;;;26.50;84.90;;;;;;5052524;28;19975;-76
2022/10/27 04:09:05;;;;;;;;;;;26.30;85.30;;;;;;5046288;28;20187;-74
2022/10/27 04:11:32;;;;;;;;;;;26.30;86.10;;;;;;5033976;28;19909;-73
2022/10/27 04:13:58;;;;;;;;;;;26.30;86.70;;;;;;5034368;28;19914;-74
2022/10/27 04:16:25;;;;;;;;;;;26.30;86.40;;;;;;5043562;28;20009;-76
2022/10/27 04:18:51;;;;;;;;;;;26.40;86.60;;;;;;5047828;28;19914;-74
2022/10/27 04:21:18;;;;;;;;;;;26.80;85.60;;;;;;5033576;28;19910;-77
2022/10/27 04:23:45;;;;;;;;;;;27.00;84.60;;;;;;5016013;28;20344;-76
2022/10/27 04:26:12;;;;;;;;;;;27.30;85.00;;;;;;5033389;28;19921;-74
2022/10/27 04:28:38;;;;;;;;;;;27.40;84.00;;;;;;5034121;28;19990;-74
2022/10/27 04:31:05;;;;;;;;;;;27.40;84.50;;;;;;5039081;28;20263;-76
2022/10/27 04:33:32;;;;;;;;;;;27.40;83.10;;;;;;5035917;28;20286;-73
2022/10/27 04:35:58;;;;;;;;;;;27.30;82.80;;;;;;5044420;28;19908;-77
2022/10/27 04:38:25;;;;;;;;;;;27.70;83.70;;;;;;5051319;28;20008;-77
2022/10/27 04:40:52;;;;;;;;;;;27.90;81.90;;;;;;5033206;28;19913;-76
2022/10/27 04:43:19;;;;;;;;;;;27.80;82.00;;;;;;5033865;28;19909;-75
2022/10/27 04:45:46;;;;;;;;;;;27.70;82.00;;;;;;5032725;28;19916;-73
2022/10/27 04:48:12;;;;;;;;;;;27.90;83.30;;;;;;5034205;28;20012;-77
2022/10/27 04:50:39;;;;;;;;;;;28.30;82.90;;;;;;5049274;28;19927;-74
2022/10/27 04:53:07;;;;;;;;;;;28.40;82.10;;;;;;5046101;28;20362;-75
2022/10/27 04:55:34;;;;;;;;;;;28.50;82.30;;;;;;5049459;28;19924;-77
2022/10/27 04:58:00;;;;;;;;;;;28.60;81.30;;;;;;5043760;28;19917;-77
2022/10/27 05:00:27;;;;;;;;;;;28.50;80.80;;;;;;5045410;28;20018;-77
2022/10/27 05:02:55;;;;;;;;;;;28.30;80.30;;;;;;5050774;28;19909;-76
2022/10/27 05:05:22;;;;;;;;;;;28.10;81.00;;;;;;5050446;28;19920;-79
2022/10/27 05:07:59;;;;;;;;;;;27.80;80.40;;;;;;5049475;28;19917;-77
2022/10/27 05:10:26;;;;;;;;;;;27.60;80.60;;;;;;5046741;28;19932;-76
2022/10/27 05:12:53;;;;;;;;;;;27.70;80.70;;;;;;5041449;28;19913;-77
2022/10/27 05:15:19;;;;;;;;;;;28.00;81.10;;;;;;5030584;28;19917;-76
2022/10/27 05:17:46;;;;;;;;;;;28.40;80.40;;;;;;5029844;28;19919;-76
2022/10/27 05:20:13;;;;;;;;;;;28.60;80.20;;;;;;5030522;28;19971;-77
2022/10/27 05:22:40;;;;;;;;;;;28.70;79.30;;;;;;5029779;28;19913;-77
2022/10/27 05:25:07;;;;;;;;;;;28.60;78.20;;;;;;5035778;28;19921;-76
2022/10/27 05:27:34;;;;;;;;;;;28.40;78.70;;;;;;5046132;28;19916;-76
2022/10/27 05:30:01;;;;;;;;;;;28.20;78.90;;;;;;5036034;28;19921;-78
2022/10/27 05:32:27;;;;;;;;;;;28.00;78.70;;;;;;5032331;28;19960;-76
2022/10/27 05:34:54;;;;;;;;;;;27.80;77.20;;;;;;5032606;28;19914;-80
2022/10/27 05:37:21;;;;;;;;;;;27.70;78.40;;;;;;5040286;28;20000;-75
2022/10/27 05:39:47;;;;;;;;;;;27.40;77.00;;;;;;5045729;28;19919;-77
2022/10/27 05:42:14;;;;;;;;;;;27.40;78.40;;;;;;5052418;28;20346;-78
2022/10/27 05:44:40;;;;;;;;;;;27.40;78.90;;;;;;5039839;28;19917;-79
2022/10/27 05:47:07;;;;;;;;;;;27.30;77.00;;;;;;5032043;28;20344;-75
2022/10/27 05:49:34;;;;;;;;;;;27.40;78.10;;;;;;5032958;28;20063;-79
2022/10/27 05:52:00;;;;;;;;;;;27.40;77.80;;;;;;5040342;28;20007;-75
2022/10/27 05:54:27;;;;;;;;;;;27.30;77.80;;;;;;5040570;28;19913;-77
2022/10/27 05:56:54;;;;;;;;;;;27.30;78.20;;;;;;5035191;28;19956;-76
2022/10/27 05:59:20;;;;;;;;;;;27.30;77.50;;;;;;5042398;28;19964;-75
2022/10/27 06:01:47;;;;;;;;;;;27.30;77.50;;;;;;5049564;28;19932;-76
2022/10/27 06:04:14;;;;;;;;;;;27.20;77.20;;;;;;5042998;28;20398;-75
2022/10/27 06:06:40;;;;;;;;;;;27.10;78.30;;;;;;5031966;28;19995;-75
2022/10/27 06:09:07;;;;;;;;;;;27.10;77.80;;;;;;5032849;28;19932;-75
2022/10/27 06:11:33;;;;;;;;;;;27.10;77.20;;;;;;5044316;28;20012;-77
2022/10/27 06:14:00;;;;;;;;;;;27.10;77.50;;;;;;5041375;28;19995;-77
2022/10/27 06:16:27;;;;;;;;;;;27.10;78.20;;;;;;5042022;28;19917;-77
2022/10/27 06:18:53;;;;;;;;;;;27.00;77.00;;;;;;5045686;28;19920;-77
2022/10/27 06:21:20;;;;;;;;;;;27.10;77.80;;;;;;5031812;28;20364;-76
2022/10/27 06:23:47;;;;;;;;;;;27.10;78.00;;;;;;5032371;28;19917;-76
2022/10/27 06:26:14;;;;;;;;;;;27.10;78.70;;;;;;5031692;28;19925;-76
2022/10/27 06:28:41;;;;;;;;;;;27.10;78.40;;;;;;5032611;28;19921;-77
2022/10/27 06:31:07;;;;;;;;;;;27.10;78.10;;;;;;5031786;28;19920;-77
2022/10/27 06:33:37;;;;;;;;;;;26.90;77.00;;;;;;5034951;28;20339;-78
2022/10/27 06:36:03;;;;;;;;;;;26.80;77.20;;;;;;5035882;28;20641;-78
2022/10/27 06:38:30;;;;;;;;;;;26.70;77.90;;;;;;5032748;28;20076;-75
2022/10/27 06:40:57;;;;;;;;;;;26.60;78.10;;;;;;5031832;28;19920;-76
2022/10/27 06:43:23;;;;;;;;;;;26.50;79.50;;;;;;5032629;28;19913;-77
2022/10/27 06:45:50;;;;;;;;;;;26.50;78.90;;;;;;5032465;28;19909;-77
2022/10/27 06:48:17;;;;;;;;;;;26.50;78.10;;;;;;5039596;28;19925;-76
2022/10/27 06:50:43;;;;;;;;;;;26.40;79.00;;;;;;5044022;28;19913;-76
2022/10/27 06:53:10;;;;;;;;;;;26.40;79.10;;;;;;5046832;28;19914;-75
2022/10/27 06:55:37;;;;;;;;;;;26.40;78.80;;;;;;5038644;28;19921;-75
2022/10/27 06:58:03;;;;;;;;;;;26.30;78.90;;;;;;5053970;28;19913;-76
2022/10/27 07:00:30;;;;;;;;;;;26.20;79.60;;;;;;5045399;28;19912;-75
2022/10/27 07:02:57;;;;;;;;;;;26.20;79.50;;;;;;5054997;28;19919;-76
2022/10/27 07:05:24;;;;;;;;;;;26.10;80.30;;;;;;5036861;28;19913;-76
2022/10/27 07:07:51;;;;;;;;;;;26.10;80.50;;;;;;5037076;28;19909;-76
2022/10/27 07:10:18;;;;;;;;;;;26.00;81.10;;;;;;5054014;28;19917;-76
2022/10/27 07:12:57;;;;;;;;;;;25.80;81.50;;;;;;5053975;28;19994;-75
2022/10/27 07:15:30;;;;;;;;;;;25.70;81.80;;;;;;5036428;28;19920;-75
2022/10/27 07:17:58;;;;;;;;;;;25.60;81.80;;;;;;5039044;28;19920;-74
2022/10/27 07:20:24;;;;;;;;;;;25.50;81.20;;;;;;5053689;28;19912;-70
2022/10/27 07:22:51;;;;;;;;;;;25.50;82.50;;;;;;5054499;28;20016;-71
2022/10/27 07:25:18;;;;;;;;;;;25.40;83.10;;;;;;5042586;28;19920;-70
2022/10/27 07:27:52;;;;;;;;;;;25.40;83.80;;;;;;5054665;28;19909;-73
2022/10/27 07:30:19;;;;;;;;;;;25.40;82.00;;;;;;5036069;28;20368;-69
2022/10/27 07:32:47;;;;;;;;;;;25.40;81.00;;;;;;5034617;28;19917;-71
2022/10/27 07:35:14;;;;;;;;;;;25.40;80.70;;;;;;5035192;28;20283;-70
2022/10/27 07:37:46;;;;;;;;;;;25.20;80.80;;;;;;5035451;28;20348;-70
2022/10/27 07:40:13;;;;;;;;;;;25.10;80.70;;;;;;5048251;28;20016;-70
2022/10/27 07:43:06;;;;;;;;;;;25.00;81.40;;;;;;5042229;28;19919;-71
2022/10/27 07:45:33;;;;;;;;;;;24.90;81.90;;;;;;5035379;28;19960;-69
2022/10/27 07:47:59;;;;;;;;;;;24.80;80.80;;;;;;5053974;28;20419;-69
2022/10/27 07:50:28;;;;;;;;;;;24.70;80.80;;;;;;5044859;28;20420;-69
2022/10/27 07:52:56;;;;;;;;;;;24.50;81.00;;;;;;5054151;28;19915;-69
2022/10/27 07:55:23;;;;;;;;;;;24.30;80.70;;;;;;5035827;28;20384;-72
2022/10/27 07:57:59;;;;;;;;;;;24.20;79.00;;;;;;5033492;28;19936;-71
2022/10/27 08:00:26;;;;;;;;;;;24.00;79.40;;;;;;5048973;28;20387;-76
2022/10/27 08:02:53;;;;;;;;;;;23.90;79.30;;;;;;5046590;28;19917;-70
2022/10/27 08:05:20;;;;;;;;;;;23.80;79.40;;;;;;5038676;28;19913;-68
2022/10/27 08:07:46;;;;;;;;;;;23.70;79.30;;;;;;5049269;28;20007;-71
2022/10/27 08:10:13;;;;;;;;;;;23.60;78.70;;;;;;5034517;28;19925;-71
2022/10/27 08:12:44;;;;;;;;;;;23.50;78.90;;;;;;5052434;28;19913;-74
2022/10/27 08:15:11;;;;;;;;;;;23.40;79.50;;;;;;5036738;28;20003;-72
2022/10/27 08:17:38;;;;;;;;;;;23.30;79.40;;;;;;5052564;28;19913;-68
2022/10/27 08:20:06;;;;;;;;;;;23.30;79.70;;;;;;5037439;28;20319;-72
2022/10/27 08:22:32;;;;;;;;;;;23.20;79.80;;;;;;5049110;28;20274;-70
2022/10/27 08:24:59;;;;;;;;;;;23.10;80.20;;;;;;5034243;28;20016;-73
2022/10/27 08:27:26;;;;;;;;;;;23.00;80.20;;;;;;5033431;28;20296;-71
2022/10/27 08:29:52;;;;;;;;;;;22.90;80.80;;;;;;5033779;28;19925;-70
2022/10/27 08:32:19;;;;;;;;;;;22.80;80.80;;;;;;5035290;28;19921;-69
2022/10/27 08:34:48;;;;;;;;;;;22.70;81.00;;;;;;5039799;28;19921;-69
2022/10/27 08:37:15;;;;;;;;;;;22.60;81.00;;;;;;5033434;28;19917;-69
2022/10/27 08:39:42;;;;;;;;;;;22.60;81.50;;;;;;5034077;28;19913;-69
2022/10/27 08:42:20;;;;;;;;;;;22.50;81.50;;;;;;5034472;28;19909;-72
2022/10/27 08:44:47;;;;;;;;;;;22.40;81.90;;;;;;5039542;28;19920;-71
2022/10/27 08:47:20;;;;;;;;;;;22.30;82.70;;;;;;5033251;28;19909;-70
2022/10/27 08:50:02;;;;;;;;;;;22.20;83.30;;;;;;5037446;28;19932;-73
2022/10/27 08:52:47;;;;;;;;;;;22.10;84.10;;;;;;5052337;28;19924;-73
2022/10/27 08:55:13;;;;;;;;;;;22.00;85.00;;;;;;5052054;28;19912;-73
2022/10/27 08:57:52;;;;;;;;;;;21.80;85.10;;;;;;5053082;28;19909;-76
2022/10/27 09:00:18;;;;;;;;;;;21.80;85.70;;;;;;5050405;28;20236;-71
2022/10/27 09:03:08;;;;;;;;;;;21.70;85.90;;;;;;5033027;28;20356;-76
2022/10/27 09:05:41;;;;;;;;;;;21.60;85.60;;;;;;5033086;28;20360;-71
2022/10/27 09:08:10;;;;;;;;;;;21.60;86.30;;;;;;5045184;28;19912;-71
2022/10/27 09:11:03;;;;;;;;;;;21.50;86.70;;;;;;5051535;28;19960;-72
2022/10/27 09:13:43;;;;;;;;;;;21.40;87.20;;;;;;5018575;28;19913;-75
2022/10/27 09:16:13;;;;;;;;;;;21.40;87.70;;;;;;5031969;28;20004;-74
2022/10/27 09:18:42;;;;;;;;;;;21.30;88.30;;;;;;5032922;28;20367;-72
2022/10/27 09:21:14;;;;;;;;;;;21.10;88.60;;;;;;5032225;28;19909;-70
2022/10/27 09:23:50;;;;;;;;;;;21.00;89.80;;;;;;5033654;28;19924;-71
2022/10/27 09:26:18;;;;;;;;;;;20.90;90.10;;;;;;5031863;28;20017;-69
2022/10/27 09:28:48;;;;;;;;;;;20.80;90.20;;;;;;5032662;28;19975;-69
2022/10/27 09:31:16;;;;;;;;;;;20.70;90.40;;;;;;5031805;28;19917;-70
2022/10/27 09:34:03;;;;;;;;;;;20.60;90.60;;;;;;5032672;28;19952;-71
2022/10/27 09:36:29;;;;;;;;;;;20.50;90.80;;;;;;5035031;28;19913;-69
2022/10/27 09:38:56;;;;;;;;;;;20.60;90.60;;;;;;5045183;28;19922;-70
2022/10/27 09:41:23;;;;;;;;;;;20.60;90.70;;;;;;5037452;28;19913;-69
2022/10/27 09:43:50;;;;;;;;;;;20.60;90.50;;;;;;5045180;28;20364;-73
2022/10/27 09:46:25;;;;;;;;;;;20.60;90.70;;;;;;5042986;28;19912;-69
2022/10/27 09:48:54;;;;;;;;;;;20.60;90.80;;;;;;5049793;28;19924;-70
2022/10/27 09:51:31;;;;;;;;;;;20.60;90.90;;;;;;5050784;28;19917;-70
2022/10/27 09:53:59;;;;;;;;;;;20.60;91.00;;;;;;5043873;28;19917;-69
2022/10/27 09:56:26;;;;;;;;;;;20.50;91.10;;;;;;5031790;28;20012;-70
2022/10/27 09:58:59;;;;;;;;;;;20.40;91.60;;;;;;5014731;28;19920;-70
2022/10/27 10:01:27;;;;;;;;;;;20.40;91.40;;;;;;5031763;28;19917;-70
2022/10/27 10:04:14;;;;;;;;;;;20.40;91.60;;;;;;5032158;28;19967;-69
2022/10/27 10:06:40;;;;;;;;;;;20.30;91.80;;;;;;5031352;28;19913;-69
2022/10/27 10:09:20;;;;;;;;;;;20.30;91.90;;;;;;5032537;28;19956;-71
2022/10/27 10:11:47;;;;;;;;;;;20.30;92.20;;;;;;5039671;28;19939;-71
2022/10/27 10:14:22;;;;;;;;;;;20.20;92.10;;;;;;5041946;28;20440;-70
2022/10/27 10:16:49;;;;;;;;;;;20.20;92.30;;;;;;5048020;28;19912;-71
2022/10/27 10:19:17;;;;;;;;;;;20.10;92.60;;;;;;5050567;28;19920;-72
2022/10/27 10:21:48;;;;;;;;;;;20.00;92.80;;;;;;5052634;28;19913;-70
2022/10/27 10:24:26;;;;;;;;;;;19.90;93.00;;;;;;5039500;28;19913;-72
2022/10/27 10:26:55;;;;;;;;;;;19.80;93.50;;;;;;5035355;28;19921;-71
2022/10/27 10:29:32;;;;;;;;;;;19.70;92.80;;;;;;5035844;28;19971;-70
2022/10/27 10:32:08;;;;;;;;;;;19.80;93.10;;;;;;5038471;28;19963;-71
2022/10/27 10:34:36;;;;;;;;;;;19.70;93.20;;;;;;5050394;28;20386;-71
2022/10/27 10:37:03;;;;;;;;;;;19.70;93.40;;;;;;5038320;28;19959;-72
2022/10/27 10:39:33;;;;;;;;;;;19.60;93.60;;;;;;5044141;28;19952;-70
2022/10/27 10:42:16;;;;;;;;;;;19.60;93.50;;;;;;5035974;28;19913;-69
2022/10/27 10:44:43;;;;;;;;;;;19.60;93.60;;;;;;5042170;28;20372;-70
2022/10/27 10:47:21;;;;;;;;;;;19.50;93.60;;;;;;5050433;28;20405;-73
2022/10/27 10:49:53;;;;;;;;;;;19.60;93.50;;;;;;5045648;28;20417;-72
2022/10/27 10:52:21;;;;;;;;;;;19.70;93.40;;;;;;5054931;28;20016;-72
2022/10/27 10:54:48;;;;;;;;;;;19.70;93.40;;;;;;5041325;28;19985;-74
2022/10/27 10:57:23;;;;;;;;;;;19.80;93.70;;;;;;5034781;28;19914;-73
2022/10/27 10:59:51;;;;;;;;;;;19.90;93.30;;;;;;5035225;28;19913;-71
2022/10/27 11:02:20;;;;;;;;;;;20.00;93.40;;;;;;5051738;28;19913;-73
2022/10/27 11:04:47;;;;;;;;;;;20.00;93.10;;;;;;5053463;28;20335;-70
2022/10/27 11:07:20;;;;;;;;;;;20.10;93.20;;;;;;5053547;28;20364;-71
2022/10/27 11:10:02;;;;;;;;;;;20.10;93.30;;;;;;5053462;28;20031;-74
2022/10/27 11:12:43;;;;;;;;;;;20.10;93.30;;;;;;5052614;28;19921;-72
2022/10/27 11:15:13;;;;;;;;;;;20.10;93.20;;;;;;5037980;28;19921;-70
2022/10/27 11:17:41;;;;;;;;;;;20.10;93.00;;;;;;5034709;28;20003;-70
2022/10/27 11:20:13;;;;;;;;;;;20.20;93.00;;;;;;5034384;28;20466;-70
2022/10/27 11:22:39;;;;;;;;;;;20.20;92.90;;;;;;5033716;28;20364;-73
2022/10/27 11:25:13;;;;;;;;;;;20.20;92.90;;;;;;5036967;28;20339;-70
2022/10/27 11:27:59;;;;;;;;;;;20.20;92.90;;;;;;5033235;28;19917;-71
2022/10/27 11:30:27;;;;;;;;;;;20.20;93.00;;;;;;5034881;28;19925;-71
2022/10/27 11:32:54;;;;;;;;;;;20.10;93.00;;;;;;5032955;28;19931;-68
2022/10/27 11:35:24;;;;;;;;;;;20.10;92.90;;;;;;5035008;28;20287;-69
2022/10/27 11:37:56;;;;;;;;;;;20.10;93.00;;;;;;5044354;28;19955;-71
2022/10/27 11:40:26;;;;;;;;;;;20.10;93.00;;;;;;5051623;28;19915;-69
2022/10/27 11:42:53;;;;;;;;;;;20.10;93.10;;;;;;5048364;28;20367;-70
2022/10/27 11:45:19;;;;;;;;;;;20.10;93.00;;;;;;5037667;28;20363;-71
2022/10/27 11:47:48;;;;;;;;;;;20.10;92.90;;;;;;5053727;28;19939;-72
2022/10/27 11:50:27;;;;;;;;;;;20.10;93.00;;;;;;5036430;28;19921;-71
2022/10/27 11:52:56;;;;;;;;;;;20.10;93.00;;;;;;5032543;28;20311;-69
2022/10/27 11:55:33;;;;;;;;;;;20.00;93.20;;;;;;5034396;28;19916;-70
2022/10/27 11:58:09;;;;;;;;;;;20.00;93.20;;;;;;5044011;28;19972;-75
2022/10/27 12:00:43;;;;;;;;;;;19.90;93.30;;;;;;5052395;28;20195;-71
2022/10/27 12:03:10;;;;;;;;;;;19.90;93.40;;;;;;5046365;28;19949;-72
2022/10/27 12:05:43;;;;;;;;;;;19.80;93.50;;;;;;5051773;28;19921;-70
2022/10/27 12:08:09;;;;;;;;;;;19.80;93.40;;;;;;5052240;28;19908;-71
2022/10/27 12:10:43;;;;;;;;;;;19.80;93.50;;;;;;5034034;28;19925;-71
2022/10/27 12:13:19;;;;;;;;;;;19.80;93.50;;;;;;5033080;28;20008;-69
2022/10/27 12:16:09;;;;;;;;;;;19.70;93.50;;;;;;5051238;28;20116;-75
2022/10/27 12:18:57;;;;;;;;;;;19.70;93.70;;;;;;5026145;28;20274;-71
2022/10/27 12:21:29;;;;;;;;;;;19.70;93.70;;;;;;5033260;28;19979;-72
2022/10/27 12:23:56;;;;;;;;;;;19.60;94.00;;;;;;5033714;28;19921;-70
2022/10/27 12:26:26;;;;;;;;;;;19.60;93.90;;;;;;5034745;28;19928;-71
2022/10/27 12:28:54;;;;;;;;;;;19.60;94.20;;;;;;5047651;28;19927;-70
2022/10/27 12:31:23;;;;;;;;;;;19.50;94.20;;;;;;5051977;28;19913;-70
2022/10/27 12:34:00;;;;;;;;;;;19.40;94.20;;;;;;5050773;28;20367;-71
2022/10/27 12:36:32;;;;;;;;;;;19.40;94.40;;;;;;5051786;28;19925;-70
2022/10/27 12:39:11;;;;;;;;;;;19.30;94.50;;;;;;5044444;28;19913;-71
2022/10/27 12:41:41;;;;;;;;;;;19.30;94.50;;;;;;5032836;28;20275;-70
2022/10/27 12:44:10;;;;;;;;;;;19.30;94.60;;;;;;5033281;28;20220;-69
2022/10/27 12:46:52;;;;;;;;;;;19.20;94.80;;;;;;5032598;28;20000;-71
2022/10/27 12:49:30;;;;;;;;;;;19.20;94.90;;;;;;5036374;28;19925;-69
2022/10/27 12:52:19;;;;;;;;;;;19.10;95.00;;;;;;5032747;28;19936;-69
2022/10/27 12:55:04;;;;;;;;;;;19.00;95.20;;;;;;5024604;28;19918;-71
2022/10/27 12:57:34;;;;;;;;;;;18.90;95.40;;;;;;5049370;28;19912;-70
2022/10/27 13:00:03;;;;;;;;;;;18.90;95.50;;;;;;5036035;28;19967;-69
2022/10/27 13:02:36;;;;;;;;;;;18.80;95.70;;;;;;5031573;28;19920;-71
2022/10/27 13:05:21;;;;;;;;;;;18.70;95.90;;;;;;5036250;28;19913;-70
2022/10/27 13:07:59;;;;;;;;;;;18.60;96.20;;;;;;5051838;28;19916;-69
2022/10/27 13:10:58;;;;;;;;;;;18.60;96.30;;;;;;5034196;28;20069;-69
2022/10/27 13:13:24;;;;;;;;;;;18.40;96.60;;;;;;5000115;28;19971;-69
2022/10/27 13:15:51;;;;;;;;;;;18.30;96.70;;;;;;5032383;28;19909;-69
2022/10/27 13:18:33;;;;;;;;;;;18.30;97.00;;;;;;5033549;28;19963;-69
2022/10/27 13:21:38;;;;;;;;;;;18.20;97.20;;;;;;5050648;28;19912;-69
2022/10/27 13:24:07;;;;;;;;;;;18.10;97.60;;;;;;4970428;28;20539;-69
2022/10/27 13:26:53;;;;;;;;;;;18.10;98.10;;;;;;4971411;28;19922;-69
2022/10/27 13:29:25;;;;;;;;;;;18.00;98.50;;;;;;5010142;28;19921;-69
2022/10/27 13:32:10;;;;;;;;;;;17.90;98.60;;;;;;5046477;28;19916;-69
2022/10/27 13:34:36;;;;;;;;;;;17.80;99.10;;;;;;5051374;28;19921;-69
2022/10/27 13:37:29;;;;;;;;;;;17.70;99.20;;;;;;5051403;28;20011;-69
2022/10/27 13:39:55;;;;;;;;;;;17.70;99.30;;;;;;5047523;28;20379;-69
2022/10/27 13:42:24;;;;;;;;;;;17.60;99.60;;;;;;5052357;28;19969;-69
2022/10/27 13:44:51;;;;;;;;;;;17.60;99.90;;;;;;5038407;28;20263;-68
2022/10/27 13:47:18;;;;;;;;;;;17.60;99.90;;;;;;5032196;28;20376;-68
2022/10/27 13:49:47;;;;;;;;;;;17.50;99.90;;;;;;5033053;28;20443;-68
2022/10/27 13:52:14;;;;;;;;;;;17.40;99.90;;;;;;5032447;28;19909;-69
2022/10/27 13:54:53;;;;;;;;;;;17.40;99.90;;;;;;5041108;28;19913;-70
2022/10/27 13:57:38;;;;;;;;;;;17.40;99.90;;;;;;5057788;28;19912;-72
2022/10/27 14:00:30;;;;;;;;;;;17.40;99.90;;;;;;5057558;28;19975;-70
2022/10/27 14:03:12;;;;;;;;;;;17.30;99.70;;;;;;5035971;28;19920;-71
2022/10/27 14:05:41;;;;;;;;;;;17.40;98.90;;;;;;5057879;28;20003;-70
2022/10/27 14:08:22;;;;;;;;;;;17.50;98.70;;;;;;5057029;28;19954;-70
2022/10/27 14:10:49;;;;;;;;;;;17.50;98.30;;;;;;5038894;28;19913;-70
2022/10/27 14:13:34;;;;;;;;;;;17.50;98.20;;;;;;5043270;28;19909;-70
2022/10/27 14:16:01;;;;;;;;;;;17.50;98.10;;;;;;5055802;28;19912;-70
2022/10/27 14:18:28;;;;;;;;;;;17.40;98.20;;;;;;5055585;28;19967;-69
2022/10/27 14:20:55;;;;;;;;;;;17.40;98.30;;;;;;5038769;28;19976;-70
2022/10/27 14:23:22;;;;;;;;;;;17.40;98.60;;;;;;5039505;28;19999;-70
2022/10/27 14:25:49;;;;;;;;;;;17.20;98.80;;;;;;5038380;28;19925;-70
2022/10/27 14:28:17;;;;;;;;;;;17.10;98.90;;;;;;5039200;28;19975;-69
2022/10/27 14:30:44;;;;;;;;;;;17.00;99.30;;;;;;5047341;28;19916;-70
2022/10/27 14:33:22;;;;;;;;;;;16.90;99.70;;;;;;5045332;28;19909;-70